GAP2773 RPLL-RPSP
Flight info
| Callsign | GAP2773 |
|---|---|
| Flight time | 1h 6m |
| Altitude | 37000 |
| Route | IPATA2R IPATA W25 BATAY BATAY1P |
| Aircraft | A320/M-SDE3FGHIRWY/LB1 |
Departure
| Time | 2026-05-05 13:56 |
|---|---|
| Airport | Ninoy Aquino International Airport (RPLL) |
Arrival
| Time | 2026-05-05 15:02 |
|---|---|
| Airport | Bohol-Panglao International Airport (RPSP) |
| Time | Latitude | Longitude | Altitude | Speed | Heading |
|---|---|---|---|---|---|
| 2026-05-05 13:32 | 14.50871 | 121.01306 | 84 ft | 0 kts | 329° |
| 2026-05-05 13:45 | 14.50859 | 121.01313 | 84 ft | 2 kts | 329° |
| 2026-05-05 13:45 | 14.50846 | 121.01321 | 84 ft | 2 kts | 329° |
| 2026-05-05 13:45 | 14.50833 | 121.01329 | 84 ft | 2 kts | 329° |
| 2026-05-05 13:46 | 14.50821 | 121.01337 | 84 ft | 2 kts | 329° |
| 2026-05-05 13:46 | 14.50812 | 121.01343 | 84 ft | 2 kts | 329° |
| 2026-05-05 13:46 | 14.50799 | 121.01350 | 84 ft | 2 kts | 329° |
| 2026-05-05 13:46 | 14.50791 | 121.01355 | 84 ft | 1 kts | 321° |
| 2026-05-05 13:47 | 14.50784 | 121.01368 | 84 ft | 2 kts | 272° |
| 2026-05-05 13:47 | 14.50786 | 121.01379 | 84 ft | 0 kts | 244° |
| 2026-05-05 13:47 | 14.50790 | 121.01386 | 84 ft | 0 kts | 240° |
| 2026-05-05 13:50 | 14.50789 | 121.01384 | 84 ft | 0 kts | 240° |
| 2026-05-05 13:50 | 14.50781 | 121.01369 | 84 ft | 3 kts | 241° |
| 2026-05-05 13:50 | 14.50764 | 121.01338 | 84 ft | 6 kts | 233° |
| 2026-05-05 13:51 | 14.50716 | 121.01319 | 84 ft | 9 kts | 178° |
| 2026-05-05 13:51 | 14.50654 | 121.01291 | 84 ft | 11 kts | 234° |
| 2026-05-05 13:51 | 14.50610 | 121.01211 | 84 ft | 13 kts | 239° |
| 2026-05-05 13:51 | 14.50558 | 121.01118 | 84 ft | 15 kts | 239° |
| 2026-05-05 13:52 | 14.50499 | 121.01013 | 84 ft | 17 kts | 240° |
| 2026-05-05 13:52 | 14.50436 | 121.00899 | 84 ft | 19 kts | 240° |
| 2026-05-05 13:52 | 14.50366 | 121.00774 | 84 ft | 20 kts | 242° |
| 2026-05-05 13:52 | 14.50291 | 121.00643 | 84 ft | 21 kts | 239° |
| 2026-05-05 13:53 | 14.50216 | 121.00504 | 84 ft | 22 kts | 240° |
| 2026-05-05 13:53 | 14.50136 | 121.00359 | 84 ft | 23 kts | 240° |
| 2026-05-05 13:53 | 14.50056 | 121.00216 | 84 ft | 20 kts | 241° |
| 2026-05-05 13:53 | 14.49982 | 121.00082 | 84 ft | 21 kts | 241° |
| 2026-05-05 13:54 | 14.49911 | 120.99968 | 84 ft | 14 kts | 204° |
| 2026-05-05 13:54 | 14.49842 | 120.99983 | 84 ft | 11 kts | 146° |
| 2026-05-05 13:54 | 14.49809 | 121.00055 | 84 ft | 13 kts | 70° |
| 2026-05-05 13:54 | 14.49856 | 121.00143 | 84 ft | 15 kts | 60° |
| 2026-05-05 13:55 | 14.49875 | 121.00178 | 84 ft | 0 kts | 60° |
| 2026-05-05 13:55 | 14.49876 | 121.00178 | 84 ft | 1 kts | 60° |
| 2026-05-05 13:55 | 14.50006 | 121.00413 | 84 ft | 76 kts | 61° |
| 2026-05-05 13:56 | 14.50391 | 121.01114 | 84 ft | 144 kts | 61° |
| 2026-05-05 13:56 | 14.50940 | 121.02132 | 390 ft | 170 kts | 63° |
| 2026-05-05 13:56 | 14.51513 | 121.03165 | 1185 ft | 165 kts | 62° |
| 2026-05-05 13:56 | 14.52077 | 121.04172 | 1902 ft | 166 kts | 63° |
| 2026-05-05 13:57 | 14.52678 | 121.05253 | 2385 ft | 180 kts | 63° |
| 2026-05-05 13:57 | 14.53342 | 121.06454 | 2686 ft | 200 kts | 62° |
| 2026-05-05 13:57 | 14.54068 | 121.07769 | 3075 ft | 217 kts | 62° |
| 2026-05-05 13:57 | 14.54858 | 121.09191 | 3490 ft | 235 kts | 62° |
| 2026-05-05 13:58 | 14.55698 | 121.10707 | 3904 ft | 253 kts | 62° |
| 2026-05-05 13:58 | 14.56595 | 121.12352 | 4330 ft | 270 kts | 66° |
| 2026-05-05 13:58 | 14.57261 | 121.14221 | 4938 ft | 278 kts | 79° |
| 2026-05-05 13:58 | 14.57572 | 121.16172 | 5677 ft | 281 kts | 85° |
| 2026-05-05 13:59 | 14.57914 | 121.19345 | 6793 ft | 291 kts | 85° |
| 2026-05-05 13:59 | 14.58170 | 121.21745 | 7686 ft | 297 kts | 85° |
| 2026-05-05 14:00 | 14.58048 | 121.26004 | 9250 ft | 303 kts | 115° |
| 2026-05-05 14:00 | 14.57321 | 121.27254 | 9765 ft | 303 kts | 133° |
| 2026-05-05 14:00 | 14.55169 | 121.29105 | 10688 ft | 311 kts | 146° |
| 2026-05-05 14:00 | 14.53359 | 121.30437 | 11105 ft | 329 kts | 147° |
| 2026-05-05 14:01 | 14.51703 | 121.31655 | 11434 ft | 345 kts | 146° |
| 2026-05-05 14:01 | 14.49689 | 121.33158 | 11778 ft | 364 kts | 145° |
| 2026-05-05 14:01 | 14.47917 | 121.34496 | 12074 ft | 378 kts | 144° |
| 2026-05-05 14:01 | 14.46490 | 121.35583 | 12455 ft | 383 kts | 144° |
| 2026-05-05 14:02 | 14.44337 | 121.37232 | 13198 ft | 386 kts | 144° |
| 2026-05-05 14:02 | 14.42172 | 121.38893 | 13936 ft | 388 kts | 145° |
| 2026-05-05 14:02 | 14.39258 | 121.41128 | 14884 ft | 391 kts | 145° |
| 2026-05-05 14:02 | 14.37033 | 121.42834 | 15585 ft | 394 kts | 145° |
| 2026-05-05 14:03 | 14.34835 | 121.44519 | 16260 ft | 396 kts | 145° |
| 2026-05-05 14:03 | 14.32597 | 121.46234 | 16930 ft | 399 kts | 145° |
| 2026-05-05 14:03 | 14.30365 | 121.47944 | 17580 ft | 401 kts | 145° |
| 2026-05-05 14:03 | 14.28106 | 121.49673 | 18215 ft | 403 kts | 145° |
| 2026-05-05 14:04 | 14.25832 | 121.51408 | 18837 ft | 406 kts | 145° |
| 2026-05-05 14:04 | 14.23551 | 121.53144 | 19437 ft | 408 kts | 145° |
| 2026-05-05 14:04 | 14.21222 | 121.54916 | 20031 ft | 410 kts | 145° |
| 2026-05-05 14:04 | 14.18906 | 121.56679 | 20604 ft | 413 kts | 145° |
| 2026-05-05 14:05 | 14.16609 | 121.58431 | 21157 ft | 415 kts | 145° |
| 2026-05-05 14:05 | 14.14279 | 121.60206 | 21692 ft | 417 kts | 145° |
| 2026-05-05 14:05 | 14.11952 | 121.61978 | 22209 ft | 419 kts | 145° |
| 2026-05-05 14:05 | 14.09605 | 121.63765 | 22714 ft | 422 kts | 145° |
| 2026-05-05 14:06 | 14.07222 | 121.65578 | 23205 ft | 424 kts | 145° |
| 2026-05-05 14:06 | 14.04822 | 121.67406 | 23682 ft | 426 kts | 145° |
| 2026-05-05 14:06 | 14.02456 | 121.69209 | 24137 ft | 428 kts | 145° |
| 2026-05-05 14:06 | 14.00039 | 121.71053 | 24585 ft | 430 kts | 145° |
| 2026-05-05 14:07 | 13.97613 | 121.72903 | 25017 ft | 433 kts | 145° |
| 2026-05-05 14:07 | 13.95211 | 121.74736 | 25432 ft | 435 kts | 145° |
| 2026-05-05 14:07 | 13.93597 | 121.75969 | 25703 ft | 436 kts | 145° |
| 2026-05-05 14:07 | 13.91263 | 121.77750 | 26082 ft | 438 kts | 145° |
| 2026-05-05 14:08 | 13.88748 | 121.79667 | 26482 ft | 440 kts | 144° |
| 2026-05-05 14:08 | 13.86297 | 121.81533 | 26854 ft | 442 kts | 144° |
| 2026-05-05 14:08 | 13.82934 | 121.84074 | 27343 ft | 445 kts | 145° |
| 2026-05-05 14:08 | 13.80419 | 121.85968 | 27692 ft | 447 kts | 145° |
| 2026-05-05 14:09 | 13.77923 | 121.87848 | 28027 ft | 449 kts | 144° |
| 2026-05-05 14:09 | 13.75385 | 121.89761 | 28350 ft | 451 kts | 144° |
| 2026-05-05 14:09 | 13.72847 | 121.91674 | 28654 ft | 453 kts | 144° |
| 2026-05-05 14:09 | 13.70273 | 121.93615 | 28945 ft | 455 kts | 144° |
| 2026-05-05 14:10 | 13.68765 | 121.94752 | 29111 ft | 456 kts | 144° |
| 2026-05-05 14:10 | 13.67591 | 121.95637 | 29239 ft | 457 kts | 144° |
| 2026-05-05 14:10 | 13.65512 | 121.97204 | 29476 ft | 457 kts | 144° |
| 2026-05-05 14:10 | 13.62967 | 121.99121 | 29839 ft | 457 kts | 144° |
| 2026-05-05 14:11 | 13.60573 | 122.00925 | 30203 ft | 455 kts | 144° |
| 2026-05-05 14:11 | 13.57985 | 122.02875 | 30592 ft | 454 kts | 144° |
| 2026-05-05 14:11 | 13.55435 | 122.04795 | 30957 ft | 453 kts | 144° |
| 2026-05-05 14:11 | 13.52872 | 122.06724 | 31310 ft | 452 kts | 144° |
| 2026-05-05 14:12 | 13.50329 | 122.08639 | 31662 ft | 451 kts | 144° |
| 2026-05-05 14:12 | 13.47833 | 122.10517 | 32067 ft | 449 kts | 144° |
| 2026-05-05 14:12 | 13.45326 | 122.12404 | 32466 ft | 446 kts | 144° |
| 2026-05-05 14:12 | 13.42814 | 122.14294 | 32820 ft | 445 kts | 144° |
| 2026-05-05 14:13 | 13.40306 | 122.16179 | 33150 ft | 445 kts | 144° |
| 2026-05-05 14:13 | 13.37817 | 122.18050 | 33467 ft | 444 kts | 144° |
| 2026-05-05 14:13 | 13.35340 | 122.19913 | 33781 ft | 444 kts | 144° |
| 2026-05-05 14:13 | 13.32868 | 122.21770 | 34089 ft | 443 kts | 144° |
| 2026-05-05 14:14 | 13.30665 | 122.23425 | 34360 ft | 442 kts | 144° |
| 2026-05-05 14:14 | 13.28381 | 122.25141 | 34638 ft | 442 kts | 144° |
| 2026-05-05 14:14 | 13.23741 | 122.28624 | 35186 ft | 440 kts | 144° |
| 2026-05-05 14:15 | 13.21269 | 122.30479 | 35425 ft | 441 kts | 144° |
| 2026-05-05 14:15 | 13.18773 | 122.32352 | 35630 ft | 442 kts | 144° |
| 2026-05-05 14:15 | 13.16256 | 122.34240 | 35830 ft | 442 kts | 144° |
| 2026-05-05 14:15 | 13.13789 | 122.36090 | 36022 ft | 443 kts | 144° |
| 2026-05-05 14:16 | 13.11290 | 122.37963 | 36207 ft | 444 kts | 144° |
| 2026-05-05 14:16 | 13.08868 | 122.39780 | 36365 ft | 445 kts | 144° |
| 2026-05-05 14:16 | 13.06374 | 122.41650 | 36506 ft | 446 kts | 144° |
| 2026-05-05 14:16 | 13.03864 | 122.43530 | 36630 ft | 448 kts | 144° |
| 2026-05-05 14:17 | 13.01372 | 122.45396 | 36744 ft | 449 kts | 144° |
| 2026-05-05 14:17 | 12.98837 | 122.47294 | 36850 ft | 451 kts | 144° |
| 2026-05-05 14:17 | 12.93737 | 122.51109 | 36901 ft | 454 kts | 144° |
| 2026-05-05 14:18 | 12.88596 | 122.54952 | 36904 ft | 455 kts | 144° |
| 2026-05-05 14:18 | 12.83525 | 122.58742 | 36904 ft | 455 kts | 144° |
| 2026-05-05 14:19 | 12.78398 | 122.62573 | 36904 ft | 455 kts | 144° |
| 2026-05-05 14:19 | 12.73258 | 122.66412 | 36904 ft | 455 kts | 144° |
| 2026-05-05 14:20 | 12.68171 | 122.70209 | 36903 ft | 455 kts | 144° |
| 2026-05-05 14:20 | 12.63064 | 122.74019 | 36900 ft | 455 kts | 144° |
| 2026-05-05 14:21 | 12.57963 | 122.77824 | 36895 ft | 455 kts | 144° |
| 2026-05-05 14:21 | 12.52836 | 122.81645 | 36889 ft | 455 kts | 144° |
| 2026-05-05 14:22 | 12.47726 | 122.85454 | 36883 ft | 455 kts | 144° |
| 2026-05-05 14:22 | 12.42614 | 122.89262 | 36880 ft | 455 kts | 144° |
| 2026-05-05 14:23 | 12.37523 | 122.93054 | 36878 ft | 455 kts | 144° |
| 2026-05-05 14:23 | 12.32418 | 122.96852 | 36877 ft | 455 kts | 144° |
| 2026-05-05 14:24 | 12.27265 | 123.00675 | 36877 ft | 455 kts | 144° |
| 2026-05-05 14:24 | 12.22146 | 123.04472 | 36877 ft | 455 kts | 144° |
| 2026-05-05 14:25 | 12.17034 | 123.08267 | 36877 ft | 455 kts | 144° |
| 2026-05-05 14:25 | 12.11933 | 123.12054 | 36877 ft | 455 kts | 144° |
| 2026-05-05 14:26 | 12.06817 | 123.15850 | 36878 ft | 455 kts | 144° |
| 2026-05-05 14:26 | 12.01700 | 123.19644 | 36878 ft | 455 kts | 144° |
| 2026-05-05 14:27 | 11.96569 | 123.23448 | 36878 ft | 455 kts | 144° |
| 2026-05-05 14:27 | 11.91429 | 123.27255 | 36755 ft | 456 kts | 144° |
| 2026-05-05 14:28 | 11.88849 | 123.29166 | 36502 ft | 454 kts | 144° |
| 2026-05-05 14:28 | 11.86305 | 123.31051 | 36250 ft | 451 kts | 144° |
| 2026-05-05 14:28 | 11.83780 | 123.32920 | 35999 ft | 448 kts | 144° |
| 2026-05-05 14:28 | 11.81253 | 123.34791 | 35747 ft | 446 kts | 144° |
| 2026-05-05 14:29 | 11.78773 | 123.36625 | 35500 ft | 446 kts | 144° |
| 2026-05-05 14:29 | 11.76286 | 123.38465 | 35252 ft | 446 kts | 144° |
| 2026-05-05 14:29 | 11.73761 | 123.40333 | 35001 ft | 446 kts | 144° |
| 2026-05-05 14:29 | 11.71248 | 123.42191 | 34751 ft | 447 kts | 144° |
| 2026-05-05 14:30 | 11.68729 | 123.44053 | 34500 ft | 448 kts | 144° |
| 2026-05-05 14:30 | 11.66220 | 123.45907 | 34252 ft | 448 kts | 144° |
| 2026-05-05 14:30 | 11.63700 | 123.47768 | 34002 ft | 449 kts | 144° |
| 2026-05-05 14:30 | 11.61166 | 123.49641 | 33751 ft | 450 kts | 144° |
| 2026-05-05 14:31 | 11.58611 | 123.51528 | 33499 ft | 450 kts | 144° |
| 2026-05-05 14:31 | 11.56114 | 123.53371 | 33253 ft | 451 kts | 144° |
| 2026-05-05 14:31 | 11.53544 | 123.55270 | 33000 ft | 452 kts | 144° |
| 2026-05-05 14:31 | 11.51035 | 123.57121 | 32753 ft | 452 kts | 144° |
| 2026-05-05 14:32 | 11.48480 | 123.59007 | 32502 ft | 453 kts | 144° |
| 2026-05-05 14:32 | 11.45912 | 123.60902 | 32250 ft | 453 kts | 144° |
| 2026-05-05 14:32 | 11.43369 | 123.62777 | 32001 ft | 454 kts | 144° |
| 2026-05-05 14:32 | 11.40814 | 123.64661 | 31751 ft | 455 kts | 144° |
| 2026-05-05 14:33 | 11.38263 | 123.66541 | 31502 ft | 455 kts | 144° |
| 2026-05-05 14:33 | 11.35756 | 123.68389 | 31195 ft | 454 kts | 144° |
| 2026-05-05 14:33 | 11.33268 | 123.70224 | 30378 ft | 457 kts | 145° |
| 2026-05-05 14:33 | 11.30677 | 123.72134 | 28998 ft | 469 kts | 145° |
| 2026-05-05 14:34 | 11.28024 | 123.74087 | 27607 ft | 478 kts | 145° |
| 2026-05-05 14:34 | 11.25327 | 123.76074 | 26322 ft | 483 kts | 145° |
| 2026-05-05 14:34 | 11.22618 | 123.78070 | 25030 ft | 486 kts | 145° |
| 2026-05-05 14:34 | 11.19859 | 123.80101 | 23684 ft | 488 kts | 145° |
| 2026-05-05 14:35 | 11.17122 | 123.82097 | 22732 ft | 481 kts | 147° |
| 2026-05-05 14:35 | 11.14292 | 123.83727 | 21954 ft | 471 kts | 156° |
| 2026-05-05 14:35 | 11.11233 | 123.84889 | 21104 ft | 464 kts | 165° |
| 2026-05-05 14:35 | 11.08138 | 123.85577 | 20258 ft | 458 kts | 171° |
| 2026-05-05 14:36 | 11.04999 | 123.86129 | 19405 ft | 453 kts | 172° |
| 2026-05-05 14:36 | 11.01913 | 123.86645 | 18566 ft | 448 kts | 172° |
| 2026-05-05 14:36 | 10.98861 | 123.87154 | 17756 ft | 443 kts | 172° |
| 2026-05-05 14:36 | 10.95792 | 123.87673 | 16949 ft | 438 kts | 172° |
| 2026-05-05 14:37 | 10.92825 | 123.88180 | 16286 ft | 431 kts | 172° |
| 2026-05-05 14:37 | 10.89887 | 123.88686 | 15931 ft | 416 kts | 172° |
| 2026-05-05 14:37 | 10.87094 | 123.89170 | 15879 ft | 396 kts | 172° |
| 2026-05-05 14:37 | 10.84362 | 123.89645 | 15880 ft | 385 kts | 172° |
| 2026-05-05 14:38 | 10.81707 | 123.90104 | 15880 ft | 384 kts | 172° |
| 2026-05-05 14:38 | 10.79439 | 123.90497 | 15879 ft | 384 kts | 172° |
| 2026-05-05 14:38 | 10.77450 | 123.90841 | 15722 ft | 384 kts | 172° |
| 2026-05-05 14:39 | 10.74576 | 123.91338 | 15447 ft | 382 kts | 172° |
| 2026-05-05 14:39 | 10.72419 | 123.91712 | 15241 ft | 381 kts | 172° |
| 2026-05-05 14:39 | 10.69859 | 123.92155 | 14995 ft | 380 kts | 172° |
| 2026-05-05 14:39 | 10.65946 | 123.92834 | 14617 ft | 378 kts | 172° |
| 2026-05-05 14:40 | 10.63359 | 123.93282 | 14366 ft | 377 kts | 172° |
| 2026-05-05 14:40 | 10.61031 | 123.93684 | 14140 ft | 376 kts | 172° |
| 2026-05-05 14:40 | 10.58454 | 123.94132 | 13889 ft | 375 kts | 172° |
| 2026-05-05 14:40 | 10.55928 | 123.94569 | 13643 ft | 374 kts | 172° |
| 2026-05-05 14:41 | 10.53397 | 123.95008 | 13395 ft | 373 kts | 172° |
| 2026-05-05 14:41 | 10.50812 | 123.95456 | 13141 ft | 372 kts | 172° |
| 2026-05-05 14:41 | 10.48324 | 123.95886 | 12896 ft | 371 kts | 172° |
| 2026-05-05 14:41 | 10.45791 | 123.96326 | 12646 ft | 370 kts | 172° |
| 2026-05-05 14:42 | 10.43243 | 123.96767 | 12394 ft | 369 kts | 172° |
| 2026-05-05 14:42 | 10.40902 | 123.97173 | 12161 ft | 368 kts | 172° |
| 2026-05-05 14:42 | 10.38356 | 123.97613 | 11908 ft | 367 kts | 172° |
| 2026-05-05 14:42 | 10.35864 | 123.98045 | 11659 ft | 366 kts | 172° |
| 2026-05-05 14:43 | 10.33359 | 123.98475 | 11408 ft | 365 kts | 173° |
| 2026-05-05 14:43 | 10.30832 | 123.98824 | 11156 ft | 364 kts | 175° |
| 2026-05-05 14:43 | 10.28302 | 123.99043 | 10903 ft | 362 kts | 178° |
| 2026-05-05 14:43 | 10.25872 | 123.99215 | 10668 ft | 359 kts | 178° |
| 2026-05-05 14:44 | 10.23497 | 123.99380 | 10307 ft | 350 kts | 178° |
| 2026-05-05 14:44 | 10.21068 | 123.99549 | 9946 ft | 342 kts | 178° |
| 2026-05-05 14:44 | 10.18766 | 123.99710 | 9770 ft | 328 kts | 178° |
| 2026-05-05 14:44 | 10.16545 | 123.99867 | 9641 ft | 315 kts | 178° |
| 2026-05-05 14:45 | 10.14414 | 124.00017 | 9512 ft | 302 kts | 178° |
| 2026-05-05 14:45 | 10.12299 | 124.00166 | 9386 ft | 300 kts | 178° |
| 2026-05-05 14:45 | 10.10239 | 124.00310 | 9261 ft | 299 kts | 178° |
| 2026-05-05 14:45 | 10.08226 | 124.00451 | 9140 ft | 299 kts | 178° |
| 2026-05-05 14:46 | 10.06946 | 124.00540 | 9063 ft | 299 kts | 178° |
| 2026-05-05 14:46 | 10.04838 | 124.00688 | 8935 ft | 298 kts | 178° |
| 2026-05-05 14:46 | 10.02754 | 124.00835 | 8809 ft | 298 kts | 178° |
| 2026-05-05 14:46 | 10.00714 | 124.00978 | 8686 ft | 297 kts | 178° |
| 2026-05-05 14:47 | 9.98637 | 124.01125 | 8558 ft | 297 kts | 177° |
| 2026-05-05 14:47 | 9.96562 | 124.01270 | 8380 ft | 296 kts | 177° |
| 2026-05-05 14:47 | 9.94830 | 124.01392 | 8275 ft | 296 kts | 177° |
| 2026-05-05 14:47 | 9.92787 | 124.01535 | 8151 ft | 296 kts | 178° |
| 2026-05-05 14:48 | 9.90728 | 124.01522 | 8023 ft | 294 kts | 186° |
| 2026-05-05 14:48 | 9.88808 | 124.01215 | 7889 ft | 293 kts | 195° |
| 2026-05-05 14:48 | 9.86953 | 124.00619 | 7720 ft | 291 kts | 203° |
| 2026-05-05 14:48 | 9.85060 | 123.99801 | 7543 ft | 290 kts | 206° |
| 2026-05-05 14:49 | 9.83226 | 123.98965 | 7368 ft | 289 kts | 206° |
| 2026-05-05 14:49 | 9.81381 | 123.98126 | 7191 ft | 289 kts | 206° |
| 2026-05-05 14:49 | 9.79545 | 123.97295 | 7016 ft | 288 kts | 206° |
| 2026-05-05 14:49 | 9.77736 | 123.96484 | 6843 ft | 288 kts | 205° |
| 2026-05-05 14:50 | 9.75879 | 123.95656 | 6665 ft | 287 kts | 205° |
| 2026-05-05 14:50 | 9.74054 | 123.94843 | 6531 ft | 287 kts | 205° |
| 2026-05-05 14:50 | 9.72241 | 123.94037 | 6382 ft | 287 kts | 205° |
| 2026-05-05 14:50 | 9.70437 | 123.93236 | 6233 ft | 286 kts | 205° |
| 2026-05-05 14:51 | 9.68648 | 123.92440 | 6086 ft | 286 kts | 205° |
| 2026-05-05 14:51 | 9.66798 | 123.91618 | 5933 ft | 285 kts | 205° |
| 2026-05-05 14:51 | 9.65489 | 123.91036 | 5825 ft | 285 kts | 205° |
| 2026-05-05 14:51 | 9.63678 | 123.90223 | 5674 ft | 284 kts | 207° |
| 2026-05-05 14:52 | 9.61908 | 123.89338 | 5525 ft | 284 kts | 208° |
| 2026-05-05 14:52 | 9.60147 | 123.88432 | 5374 ft | 283 kts | 208° |
| 2026-05-05 14:52 | 9.58394 | 123.87527 | 5224 ft | 283 kts | 208° |
| 2026-05-05 14:52 | 9.56645 | 123.86626 | 5074 ft | 282 kts | 208° |
| 2026-05-05 14:53 | 9.54964 | 123.85760 | 4930 ft | 282 kts | 208° |
| 2026-05-05 14:53 | 9.53208 | 123.84856 | 4779 ft | 281 kts | 208° |
| 2026-05-05 14:53 | 9.51466 | 123.83961 | 4642 ft | 281 kts | 208° |
| 2026-05-05 14:53 | 9.49738 | 123.83073 | 4518 ft | 281 kts | 208° |
| 2026-05-05 14:54 | 9.47996 | 123.82177 | 4393 ft | 280 kts | 208° |
| 2026-05-05 14:54 | 9.46245 | 123.81278 | 4266 ft | 280 kts | 208° |
| 2026-05-05 14:54 | 9.44499 | 123.80380 | 4141 ft | 279 kts | 208° |
| 2026-05-05 14:54 | 9.43019 | 123.79620 | 4034 ft | 279 kts | 208° |
| 2026-05-05 14:55 | 9.41288 | 123.78731 | 3997 ft | 279 kts | 208° |
| 2026-05-05 14:55 | 9.39555 | 123.77840 | 3994 ft | 279 kts | 208° |
| 2026-05-05 14:55 | 9.37845 | 123.76920 | 3988 ft | 278 kts | 216° |
| 2026-05-05 14:55 | 9.36637 | 123.75517 | 3965 ft | 257 kts | 251° |
| 2026-05-05 14:56 | 9.36464 | 123.73804 | 3851 ft | 240 kts | 287° |
| 2026-05-05 14:56 | 9.37162 | 123.72349 | 3727 ft | 227 kts | 305° |
| 2026-05-05 14:56 | 9.38024 | 123.71051 | 3573 ft | 219 kts | 306° |
| 2026-05-05 14:56 | 9.38852 | 123.69780 | 3422 ft | 211 kts | 305° |
| 2026-05-05 14:57 | 9.39631 | 123.68551 | 3360 ft | 197 kts | 308° |
| 2026-05-05 14:57 | 9.40657 | 123.67759 | 3184 ft | 182 kts | 345° |
| 2026-05-05 14:57 | 9.41823 | 123.67799 | 3094 ft | 162 kts | 18° |
| 2026-05-05 14:57 | 9.42780 | 123.68298 | 2961 ft | 147 kts | 29° |
| 2026-05-05 14:58 | 9.43602 | 123.68810 | 2843 ft | 132 kts | 30° |
| 2026-05-05 14:58 | 9.44332 | 123.69267 | 2776 ft | 130 kts | 30° |
| 2026-05-05 14:58 | 9.45106 | 123.69743 | 2611 ft | 130 kts | 30° |
| 2026-05-05 14:58 | 9.45884 | 123.70214 | 2409 ft | 129 kts | 30° |
| 2026-05-05 14:59 | 9.46490 | 123.70579 | 2273 ft | 129 kts | 29° |
| 2026-05-05 14:59 | 9.47238 | 123.71028 | 2105 ft | 128 kts | 30° |
| 2026-05-05 14:59 | 9.48004 | 123.71487 | 1935 ft | 128 kts | 30° |
| 2026-05-05 14:59 | 9.48773 | 123.71946 | 1771 ft | 128 kts | 30° |
| 2026-05-05 15:00 | 9.49536 | 123.72401 | 1604 ft | 127 kts | 30° |
| 2026-05-05 15:00 | 9.50053 | 123.72710 | 1490 ft | 127 kts | 30° |
| 2026-05-05 15:00 | 9.51066 | 123.73314 | 1266 ft | 127 kts | 30° |
| 2026-05-05 15:00 | 9.51821 | 123.73764 | 1099 ft | 126 kts | 30° |
| 2026-05-05 15:01 | 9.52586 | 123.74220 | 929 ft | 126 kts | 30° |
| 2026-05-05 15:01 | 9.53341 | 123.74670 | 761 ft | 126 kts | 30° |
| 2026-05-05 15:01 | 9.54103 | 123.75125 | 592 ft | 125 kts | 30° |
| 2026-05-05 15:01 | 9.54857 | 123.75574 | 447 ft | 125 kts | 30° |
| 2026-05-05 15:02 | 9.55614 | 123.76015 | 235 ft | 125 kts | 30° |
| 2026-05-05 15:02 | 9.56366 | 123.76454 | 117 ft | 124 kts | 30° |
| 2026-05-05 15:02 | 9.57071 | 123.76880 | 51 ft | 105 kts | 31° |
| 2026-05-05 15:02 | 9.57445 | 123.77099 | 50 ft | 17 kts | 30° |
| 2026-05-05 15:03 | 9.57469 | 123.77113 | 50 ft | 5 kts | 30° |
| 2026-05-05 15:03 | 9.57518 | 123.77146 | 50 ft | 11 kts | 44° |
| 2026-05-05 15:03 | 9.57560 | 123.77178 | 50 ft | 3 kts | 355° |
| 2026-05-05 15:03 | 9.57555 | 123.77166 | 50 ft | 5 kts | 207° |
| 2026-05-05 15:04 | 9.57501 | 123.77136 | 50 ft | 11 kts | 214° |
| 2026-05-05 15:04 | 9.57429 | 123.77089 | 50 ft | 10 kts | 208° |
| 2026-05-05 15:04 | 9.57359 | 123.77101 | 50 ft | 12 kts | 137° |
| 2026-05-05 15:04 | 9.57301 | 123.77190 | 50 ft | 17 kts | 121° |
| 2026-05-05 15:05 | 9.57141 | 123.77192 | 50 ft | 11 kts | 211° |
| 2026-05-05 15:05 | 9.57096 | 123.77165 | 50 ft | 0 kts | 211° |
| 2026-05-05 15:05 | 9.57094 | 123.77164 | 50 ft | 2 kts | 211° |
| 2026-05-05 15:06 | 9.57063 | 123.77145 | 50 ft | 8 kts | 210° |
| 2026-05-05 15:06 | 9.57050 | 123.77138 | 50 ft | 0 kts | 210° |
| 2026-05-05 15:06 | 9.57025 | 123.77133 | 50 ft | 6 kts | 162° |
| 2026-05-05 15:06 | 9.56998 | 123.77176 | 50 ft | 0 kts | 113° |
| 2026-05-05 15:07 | 9.56992 | 123.77190 | 50 ft | 0 kts | 119° |
| 2026-05-05 15:07 | 9.56986 | 123.77200 | 50 ft | 3 kts | 121° |
| 2026-05-05 15:07 | 9.56985 | 123.77201 | 50 ft | 0 kts | 121° |
| 2026-05-05 15:08 | 9.56980 | 123.77209 | 50 ft | 0 kts | 121° |
| 2026-05-05 15:08 | 9.56979 | 123.77211 | 50 ft | 0 kts | 121° |
| 2026-05-05 15:08 | 9.56979 | 123.77212 | 50 ft | 0 kts | 121° |